createdAt,value
2019-05-06T00:01:08.586Z,4.37
2019-05-06T00:02:43.671Z,4.43
2019-05-06T00:04:18.457Z,3.85
2019-05-06T00:05:54.416Z,4.17
2019-05-06T00:07:29.174Z,4.75
2019-05-06T00:09:05.641Z,4.33
2019-05-06T00:10:41.624Z,4.00
2019-05-06T00:12:16.346Z,3.93
2019-05-06T00:13:51.033Z,4.10
2019-05-06T00:15:27.243Z,4.13
2019-05-06T00:17:03.918Z,4.73
2019-05-06T00:18:38.264Z,4.13
2019-05-06T00:20:14.715Z,3.83
2019-05-06T00:21:49.377Z,3.87
2019-05-06T00:23:31.922Z,3.93
2019-05-06T00:25:11.711Z,3.80
2019-05-06T00:27:14.157Z,4.23
2019-05-06T00:28:53.915Z,4.05
2019-05-06T00:30:28.685Z,4.55
2019-05-06T00:32:04.395Z,4.08
2019-05-06T00:33:39.251Z,3.77
2019-05-06T00:35:14.246Z,3.70
2019-05-06T00:36:48.958Z,3.67
2019-05-06T00:38:24.604Z,4.03
2019-05-06T00:40:08.199Z,3.70
2019-05-06T00:41:45.666Z,3.77
2019-05-06T00:43:20.316Z,3.90
2019-05-06T00:44:54.971Z,3.60
2019-05-06T00:46:30.645Z,4.07
2019-05-06T00:48:05.490Z,4.00
2019-05-06T00:49:40.136Z,4.00
2019-05-06T00:51:14.880Z,3.60
2019-05-06T00:52:50.641Z,4.40
2019-05-06T00:54:26.431Z,3.60
2019-05-06T00:56:01.216Z,3.70
2019-05-06T00:57:45.150Z,3.50
2019-05-06T00:59:19.791Z,3.97
2019-05-06T01:00:54.778Z,3.50
2019-05-06T01:02:29.392Z,3.70
2019-05-06T01:04:05.081Z,3.70
2019-05-06T01:05:39.699Z,3.90
2019-05-06T01:07:14.400Z,3.33
2019-05-06T01:08:49.043Z,3.80
2019-05-06T01:10:23.890Z,3.67
2019-05-06T01:11:59.603Z,3.97
2019-05-06T01:13:43.790Z,3.50
2019-05-06T01:15:19.799Z,4.07
2019-05-06T01:16:54.848Z,3.50
2019-05-06T01:18:30.692Z,3.73
2019-05-06T01:20:05.388Z,4.10
2019-05-06T01:21:40.048Z,3.53
2019-05-06T01:23:14.671Z,3.83
2019-05-06T01:24:49.393Z,3.60
2019-05-06T01:26:24.387Z,4.00
2019-05-06T01:27:59.141Z,3.80
2019-05-06T01:29:34.765Z,3.80
2019-05-06T01:31:09.706Z,3.90
2019-05-06T01:32:44.653Z,3.73
2019-05-06T01:34:19.300Z,3.90
2019-05-06T01:35:54.243Z,3.80
2019-05-06T01:37:29.038Z,3.70
2019-05-06T01:39:13.903Z,4.33
2019-05-06T01:41:00.762Z,3.97
2019-05-06T01:42:44.634Z,3.87
2019-05-06T01:44:19.293Z,3.62
2019-05-06T01:45:53.914Z,3.60
2019-05-06T01:47:28.832Z,4.53
2019-05-06T01:49:04.224Z,3.90
2019-05-06T01:50:39.080Z,3.73
2019-05-06T01:52:14.879Z,3.57
2019-05-06T01:53:50.401Z,4.13
2019-05-06T01:55:25.119Z,3.95
2019-05-06T01:56:59.763Z,3.85
2019-05-06T01:58:34.404Z,3.93
2019-05-06T02:00:10.679Z,3.90
2019-05-06T02:01:57.373Z,3.73
2019-05-06T02:03:24.218Z,3.85
2019-05-06T02:04:59.196Z,4.30
2019-05-06T02:06:34.427Z,3.80
2019-05-06T02:08:09.220Z,3.97
2019-05-06T02:09:44.758Z,4.80
2019-05-06T02:11:20.555Z,3.70
2019-05-06T02:12:55.188Z,3.83
2019-05-06T02:14:29.835Z,3.60
2019-05-06T02:16:04.499Z,3.30
2019-05-06T02:17:39.133Z,3.73
2019-05-06T02:19:14.829Z,3.22
2019-05-06T02:20:51.459Z,4.17
2019-05-06T02:22:41.782Z,4.10
2019-05-06T02:24:21.317Z,3.72
2019-05-06T02:25:55.988Z,3.50
2019-05-06T02:27:30.658Z,3.90
2019-05-06T02:29:07.495Z,3.47
2019-05-06T02:30:59.753Z,3.40
2019-05-06T02:32:55.629Z,3.87
2019-05-06T02:34:54.659Z,3.60
2019-05-06T02:36:36.300Z,3.70
2019-05-06T02:38:46.944Z,3.85
2019-05-06T02:40:25.022Z,3.58
2019-05-06T02:41:58.019Z,4.00
2019-05-06T02:43:34.557Z,3.60
2019-05-06T02:45:12.570Z,3.58
2019-05-06T02:46:49.079Z,4.85
2019-05-06T02:48:33.582Z,4.60
2019-05-06T02:50:13.326Z,4.90
2019-05-06T02:51:47.931Z,4.65
2019-05-06T02:53:24.392Z,4.00
2019-05-06T02:54:59.468Z,3.90
2019-05-06T02:56:35.165Z,3.53
2019-05-06T02:58:09.808Z,3.83
2019-05-06T02:59:44.417Z,3.90
2019-05-06T03:01:19.072Z,3.50
2019-05-06T03:02:54.336Z,3.50
2019-05-06T03:04:29.101Z,3.50
2019-05-06T03:06:04.507Z,3.67
2019-05-06T03:07:39.418Z,3.60
2019-05-06T03:09:14.068Z,3.20
2019-05-06T03:10:48.779Z,3.90
2019-05-06T03:12:23.493Z,3.80
2019-05-06T03:13:58.159Z,3.77
2019-05-06T03:15:34.300Z,3.60
2019-05-06T03:17:09.217Z,4.07
2019-05-06T03:18:43.923Z,3.23
2019-05-06T03:20:39.270Z,3.73
2019-05-06T03:22:54.251Z,3.53
2019-05-06T03:24:54.462Z,3.67
2019-05-06T03:26:29.024Z,3.70
2019-05-06T03:28:04.395Z,3.77
2019-05-06T03:29:39.198Z,4.17
2019-05-06T03:31:16.872Z,3.67
2019-05-06T03:33:28.262Z,3.53
2019-05-06T03:34:49.384Z,3.67
2019-05-06T03:36:15.453Z,3.23
2019-05-06T03:37:40.202Z,3.43
2019-05-06T03:39:14.870Z,3.57
2019-05-06T03:40:49.481Z,3.77
2019-05-06T03:42:24.180Z,3.07
2019-05-06T03:43:58.843Z,3.47
2019-05-06T03:45:49.038Z,3.33
2019-05-06T03:47:54.267Z,3.60
2019-05-06T03:49:33.734Z,3.40
2019-05-06T03:51:06.891Z,3.87
2019-05-06T03:52:43.049Z,3.73
2019-05-06T03:54:18.750Z,3.53
2019-05-06T03:55:54.648Z,3.10
2019-05-06T03:57:29.760Z,3.43
2019-05-06T03:59:05.164Z,2.93
2019-05-06T04:00:39.979Z,3.30
2019-05-06T04:02:14.605Z,3.30
2019-05-06T04:03:55.890Z,3.30
2019-05-06T04:05:25.546Z,3.23
2019-05-06T04:07:03.390Z,3.37
2019-05-06T04:08:37.802Z,3.43
2019-05-06T04:10:13.773Z,4.00
2019-05-06T04:11:54.075Z,3.43
2019-05-06T04:13:27.909Z,3.80
2019-05-06T04:15:04.073Z,3.63
2019-05-06T04:16:53.183Z,3.40
2019-05-06T04:18:27.924Z,2.57
2019-05-06T04:20:12.755Z,3.70
2019-05-06T04:22:12.565Z,3.60
2019-05-06T04:23:57.229Z,3.23
2019-05-06T04:25:43.461Z,3.07
2019-05-06T04:27:53.783Z,3.43
2019-05-06T04:29:28.944Z,3.23
2019-05-06T04:31:04.327Z,3.07
2019-05-06T04:32:39.027Z,2.97
2019-05-06T04:34:19.342Z,3.10
2019-05-06T04:36:04.584Z,3.57
2019-05-06T04:37:39.482Z,3.03
2019-05-06T04:39:14.800Z,3.40
2019-05-06T04:40:49.532Z,3.80
2019-05-06T04:42:26.995Z,3.30
2019-05-06T04:44:02.924Z,3.10
2019-05-06T04:45:37.335Z,3.07
2019-05-06T04:47:14.721Z,3.47
2019-05-06T04:48:48.408Z,3.00
2019-05-06T04:50:24.219Z,3.23
2019-05-06T04:52:03.413Z,3.63
2019-05-06T04:53:36.670Z,3.60
2019-05-06T04:55:14.105Z,3.40
2019-05-06T04:56:48.360Z,3.40
2019-05-06T04:58:23.574Z,3.30
2019-05-06T04:59:58.569Z,3.37
2019-05-06T05:01:34.264Z,3.63
2019-05-06T05:03:09.197Z,3.70
2019-05-06T05:04:43.897Z,3.50
2019-05-06T05:06:18.558Z,3.30
2019-05-06T05:07:53.271Z,3.70
2019-05-06T05:09:28.066Z,3.80
2019-05-06T05:11:08.855Z,4.17
2019-05-06T05:12:52.755Z,3.90
2019-05-06T05:14:35.966Z,3.73
2019-05-06T05:16:38.844Z,4.13
2019-05-06T05:18:35.824Z,3.67
2019-05-06T05:20:12.557Z,3.47
2019-05-06T05:21:46.970Z,3.87
2019-05-06T05:23:22.878Z,3.57
2019-05-06T05:24:57.573Z,3.93
2019-05-06T05:26:32.413Z,3.77
2019-05-06T05:28:07.114Z,3.60
2019-05-06T05:29:42.447Z,3.67
2019-05-06T05:31:17.438Z,3.50
2019-05-06T05:32:52.204Z,4.27
2019-05-06T05:34:38.059Z,3.50
2019-05-06T05:36:04.486Z,4.47
2019-05-06T05:37:39.308Z,3.87
2019-05-06T05:39:14.111Z,4.17
2019-05-06T05:40:48.742Z,4.20
2019-05-06T05:42:30.034Z,4.33
2019-05-06T05:44:11.911Z,3.90
2019-05-06T05:45:46.410Z,3.80
2019-05-06T05:47:22.101Z,4.47
2019-05-06T05:49:09.314Z,3.90
2019-05-06T05:50:44.159Z,4.30
2019-05-06T05:52:19.185Z,3.40
2019-05-06T05:53:53.947Z,3.63
2019-05-06T05:55:28.619Z,3.90
2019-05-06T05:57:03.316Z,3.90
2019-05-06T05:58:37.982Z,3.30
2019-05-06T06:00:13.257Z,3.67
2019-05-06T06:01:47.913Z,3.93
2019-05-06T06:03:22.632Z,4.33
2019-05-06T06:04:57.871Z,3.70
2019-05-06T06:06:35.498Z,3.63
2019-05-06T06:08:10.239Z,4.00
2019-05-06T06:09:56.233Z,3.70
2019-05-06T06:11:48.323Z,3.63
2019-05-06T06:13:23.006Z,3.33
2019-05-06T06:15:22.901Z,3.53
2019-05-06T06:17:08.032Z,3.83
2019-05-06T06:18:52.458Z,3.70
2019-05-06T06:20:45.233Z,3.73
2019-05-06T06:22:22.760Z,3.73
2019-05-06T06:24:02.686Z,3.17
2019-05-06T06:25:37.263Z,3.80
2019-05-06T06:27:12.578Z,3.97
2019-05-06T06:28:47.409Z,3.83
2019-05-06T06:30:33.015Z,3.90
2019-05-06T06:32:18.380Z,3.80
2019-05-06T06:33:56.739Z,3.80
2019-05-06T06:35:38.398Z,3.40
2019-05-06T06:37:36.267Z,3.50
2019-05-06T06:39:17.586Z,3.97
2019-05-06T06:40:55.455Z,3.23
2019-05-06T06:42:28.848Z,3.90
2019-05-06T06:44:06.577Z,3.40
2019-05-06T06:45:42.194Z,3.50
2019-05-06T06:47:17.075Z,3.67
2019-05-06T06:48:52.738Z,4.30
2019-05-06T06:50:28.465Z,3.20
2019-05-06T06:52:03.206Z,3.27
2019-05-06T06:53:37.867Z,3.50
2019-05-06T06:55:12.997Z,3.40
2019-05-06T06:57:09.418Z,3.80
2019-05-06T06:59:02.582Z,3.47
2019-05-06T07:00:58.592Z,3.30
2019-05-06T07:02:55.544Z,3.27
2019-05-06T07:04:38.083Z,3.10
2019-05-06T07:06:18.644Z,3.30
2019-05-06T07:07:53.469Z,3.30
2019-05-06T07:09:29.712Z,3.47
2019-05-06T07:11:04.628Z,3.57
2019-05-06T07:12:39.260Z,3.53
2019-05-06T07:14:13.996Z,2.90
2019-05-06T07:15:48.648Z,2.87
2019-05-06T07:17:23.307Z,3.53
2019-05-06T07:18:58.141Z,3.40
2019-05-06T07:20:37.247Z,3.60
2019-05-06T07:22:12.730Z,3.33
2019-05-06T07:23:47.559Z,3.30
2019-05-06T07:25:22.766Z,3.33
2019-05-06T07:27:19.921Z,2.93
2019-05-06T07:28:54.595Z,3.20
2019-05-06T07:30:33.470Z,2.97
2019-05-06T07:32:08.103Z,3.03
2019-05-06T07:33:43.079Z,2.90
2019-05-06T07:35:17.780Z,3.10
2019-05-06T07:36:52.730Z,3.10
2019-05-06T07:38:27.546Z,2.83
2019-05-06T07:40:03.085Z,2.77
2019-05-06T07:41:45.879Z,3.13
2019-05-06T07:43:34.696Z,2.60
2019-05-06T07:45:32.847Z,3.03
2019-05-06T07:47:15.780Z,2.53
2019-05-06T07:48:51.880Z,2.77
2019-05-06T07:50:26.679Z,2.60
2019-05-06T07:52:02.872Z,2.50
2019-05-06T07:53:38.791Z,2.47
2019-05-06T07:55:13.892Z,2.60
2019-05-06T07:56:48.709Z,2.20
2019-05-06T07:58:23.370Z,2.17
2019-05-06T07:59:58.018Z,2.43
2019-05-06T08:01:33.303Z,2.43
2019-05-06T08:03:08.287Z,2.40
2019-05-06T08:04:42.999Z,2.43
2019-05-06T08:06:17.659Z,2.07
2019-05-06T08:07:55.038Z,2.00
2019-05-06T08:09:28.764Z,2.20
2019-05-06T08:11:03.415Z,2.30
2019-05-06T08:12:38.064Z,3.87
2019-05-06T08:14:13.675Z,2.90
2019-05-06T08:15:48.587Z,2.30
2019-05-06T08:17:32.916Z,2.10
2019-05-06T08:19:07.244Z,1.80
2019-05-06T08:20:42.730Z,2.03
2019-05-06T08:22:22.708Z,1.70
2019-05-06T08:23:57.753Z,1.70
2019-05-06T08:25:42.496Z,1.90
2019-05-06T08:27:17.308Z,1.50
2019-05-06T08:28:52.732Z,1.80
2019-05-06T08:30:27.691Z,1.70
2019-05-06T08:32:02.924Z,2.23
2019-05-06T08:33:37.803Z,1.97
2019-05-06T08:35:13.497Z,1.70
2019-05-06T08:37:05.933Z,2.30
2019-05-06T08:38:57.693Z,1.60
2019-05-06T08:40:32.388Z,2.17
2019-05-06T08:42:08.473Z,2.00
2019-05-06T08:43:43.238Z,1.90
2019-05-06T08:45:17.985Z,2.30
2019-05-06T08:46:53.245Z,2.07
2019-05-06T08:48:28.033Z,1.90
2019-05-06T08:50:22.156Z,1.83
2019-05-06T08:52:02.533Z,1.93
2019-05-06T08:53:45.290Z,1.97
2019-05-06T08:55:29.413Z,2.00
2019-05-06T08:57:04.392Z,1.87
2019-05-06T08:58:46.857Z,1.80
2019-05-06T09:00:22.756Z,1.80
2019-05-06T09:01:59.231Z,2.00
2019-05-06T09:03:33.837Z,2.00
2019-05-06T09:05:08.482Z,2.47
2019-05-06T09:06:43.428Z,2.17
2019-05-06T09:08:18.044Z,2.27
2019-05-06T09:09:52.806Z,1.90
2019-05-06T09:11:28.074Z,1.90
2019-05-06T09:13:02.762Z,2.17
2019-05-06T09:14:38.484Z,2.40
2019-05-06T09:16:13.142Z,2.43
2019-05-06T09:17:47.778Z,2.80
2019-05-06T09:19:23.339Z,2.03
2019-05-06T09:20:58.188Z,1.77
2019-05-06T09:22:32.954Z,2.10
2019-05-06T09:24:07.676Z,2.00
2019-05-06T09:25:42.550Z,2.00
2019-05-06T09:27:39.210Z,1.63
2019-05-06T09:29:23.069Z,1.60
2019-05-06T09:31:15.769Z,1.70
2019-05-06T09:32:52.114Z,1.77
2019-05-06T09:34:58.208Z,1.83
2019-05-06T09:36:43.708Z,1.30
2019-05-06T09:38:12.742Z,1.40
2019-05-06T09:39:47.930Z,1.60
2019-05-06T09:41:23.175Z,1.60
2019-05-06T09:42:57.844Z,1.63
2019-05-06T09:44:33.026Z,1.63
2019-05-06T09:46:08.215Z,1.73
2019-05-06T09:47:48.709Z,1.30
2019-05-06T09:49:24.846Z,1.30
2019-05-06T09:50:59.482Z,1.43
2019-05-06T09:52:34.139Z,1.60
2019-05-06T09:54:15.170Z,1.73
2019-05-06T09:56:07.758Z,1.50
2019-05-06T09:58:19.730Z,1.60
2019-05-06T09:59:54.374Z,2.00
2019-05-06T10:01:29.033Z,2.10
2019-05-06T10:03:03.984Z,2.03
2019-05-06T10:04:38.701Z,1.60
2019-05-06T10:06:13.413Z,1.63
2019-05-06T10:07:48.107Z,1.63
2019-05-06T10:09:24.922Z,1.80
2019-05-06T10:11:00.040Z,1.90
2019-05-06T10:12:34.745Z,1.80
2019-05-06T10:14:09.774Z,1.60
2019-05-06T10:15:44.495Z,1.63
2019-05-06T10:17:19.270Z,1.40
2019-05-06T10:18:53.989Z,2.13
2019-05-06T10:20:28.660Z,1.70
2019-05-06T10:22:03.672Z,1.80
2019-05-06T10:23:38.823Z,1.90
2019-05-06T10:25:14.304Z,1.80
2019-05-06T10:26:53.679Z,1.80
2019-05-06T10:28:37.711Z,1.73
2019-05-06T10:30:12.960Z,1.83
2019-05-06T10:31:52.389Z,1.90
2019-05-06T10:33:28.078Z,1.80
2019-05-06T10:35:02.969Z,1.90
2019-05-06T10:36:47.192Z,1.70
2019-05-06T10:38:35.399Z,2.00
2019-05-06T10:40:15.440Z,1.73
2019-05-06T10:41:53.878Z,1.80
2019-05-06T10:43:36.377Z,2.03
2019-05-06T10:45:27.200Z,1.47
2019-05-06T10:47:02.925Z,1.33
2019-05-06T10:48:37.767Z,5.67
2019-05-06T10:50:12.728Z,2.87
2019-05-06T10:52:06.321Z,2.63
2019-05-06T10:53:42.463Z,1.97
2019-05-06T10:55:17.341Z,1.73
2019-05-06T10:57:03.895Z,2.00
2019-05-06T10:58:38.537Z,1.87
2019-05-06T11:00:13.247Z,1.90
2019-05-06T11:03:41.997Z,2.37
2019-05-06T11:05:16.865Z,1.80
2019-05-06T11:06:52.510Z,1.87
2019-05-06T11:08:27.376Z,1.37
2019-05-06T11:10:02.707Z,1.60
2019-05-06T11:11:38.832Z,1.53
2019-05-06T11:13:15.116Z,1.90
2019-05-06T11:14:55.283Z,1.80
2019-05-06T11:16:26.242Z,1.60
2019-05-06T11:18:04.102Z,1.70
2019-05-06T11:19:37.253Z,1.80
2019-05-06T11:21:12.764Z,1.90
2019-05-06T11:22:47.624Z,1.57
2019-05-06T11:24:23.133Z,1.73
2019-05-06T11:25:57.884Z,1.63
2019-05-06T11:27:37.500Z,1.97
2019-05-06T11:29:15.222Z,1.80
2019-05-06T11:31:09.387Z,1.97
2019-05-06T11:32:54.601Z,1.80
2019-05-06T11:34:45.262Z,1.57
2019-05-06T11:36:45.249Z,1.60
2019-05-06T11:38:22.783Z,1.63
2019-05-06T11:39:57.536Z,1.83
2019-05-06T11:41:32.346Z,2.17
2019-05-06T11:43:07.017Z,2.00
2019-05-06T11:44:44.140Z,1.70
2019-05-06T11:46:18.427Z,1.63
2019-05-06T11:47:55.993Z,2.10
2019-05-06T11:49:29.457Z,1.83
2019-05-06T11:51:05.759Z,2.00
2019-05-06T11:52:43.324Z,1.93
2019-05-06T11:54:20.849Z,1.70
2019-05-06T11:55:55.061Z,1.80
2019-05-06T11:57:29.902Z,2.00
2019-05-06T11:59:04.647Z,2.30
2019-05-06T12:00:44.444Z,1.87
2019-05-06T12:02:20.146Z,1.93
2019-05-06T12:03:54.898Z,1.60
2019-05-06T12:05:29.575Z,1.73
2019-05-06T12:07:11.400Z,2.10
2019-05-06T12:08:43.236Z,1.90
2019-05-06T12:10:19.236Z,2.07
2019-05-06T12:11:53.852Z,2.30
2019-05-06T12:13:28.591Z,2.30
2019-05-06T12:15:06.706Z,2.27
2019-05-06T12:16:39.719Z,1.97
2019-05-06T12:18:14.741Z,2.50
2019-05-06T12:19:49.383Z,2.40
2019-05-06T12:21:24.141Z,2.37
2019-05-06T12:22:58.800Z,2.40
2019-05-06T12:24:33.497Z,2.20
2019-05-06T12:26:13.004Z,2.27
2019-05-06T12:27:47.289Z,1.93
2019-05-06T12:29:21.964Z,1.70
2019-05-06T12:30:56.684Z,2.10
2019-05-06T12:32:36.726Z,2.53
2019-05-06T12:34:12.477Z,1.83
2019-05-06T12:35:48.188Z,2.27
2019-05-06T12:37:24.622Z,2.43
2019-05-06T12:39:24.801Z,2.30
2019-05-06T12:41:00.116Z,2.30
2019-05-06T12:42:43.176Z,2.50
2019-05-06T12:44:18.086Z,2.67
2019-05-06T12:45:55.268Z,2.57
2019-05-06T12:47:43.697Z,2.10
2019-05-06T12:49:18.331Z,2.00
2019-05-06T12:50:52.986Z,2.60
2019-05-06T12:52:32.352Z,2.00
2019-05-06T12:54:07.118Z,2.60
2019-05-06T12:55:43.164Z,2.77
2019-05-06T12:57:19.061Z,2.53
2019-05-06T12:58:53.717Z,2.50
2019-05-06T13:00:30.496Z,2.47
2019-05-06T13:02:05.282Z,2.40
2019-05-06T13:03:39.996Z,2.53
2019-05-06T13:05:15.104Z,2.40
2019-05-06T13:06:52.073Z,2.50
2019-05-06T13:08:35.916Z,2.50
2019-05-06T13:10:02.998Z,2.37
2019-05-06T13:11:37.826Z,2.60
2019-05-06T13:13:12.842Z,2.57
2019-05-06T13:14:47.534Z,2.50
2019-05-06T13:16:22.881Z,2.80
2019-05-06T13:17:57.712Z,3.20
2019-05-06T13:19:32.438Z,2.60
2019-05-06T13:21:07.259Z,3.03
2019-05-06T13:22:56.688Z,2.87
2019-05-06T13:24:32.664Z,2.80
2019-05-06T13:26:07.646Z,2.60
2019-05-06T13:27:42.991Z,2.30
2019-05-06T13:29:24.704Z,2.00
2019-05-06T13:31:13.409Z,2.27
2019-05-06T13:32:38.184Z,2.00
2019-05-06T13:34:16.720Z,2.00
2019-05-06T13:35:52.623Z,2.20
2019-05-06T13:37:27.551Z,2.20
2019-05-06T13:39:14.158Z,2.37
2019-05-06T13:40:51.340Z,1.90
2019-05-06T13:42:17.402Z,2.33
2019-05-06T13:44:02.598Z,2.03
2019-05-06T13:45:37.540Z,1.70
2019-05-06T13:47:16.158Z,1.90
2019-05-06T13:48:57.652Z,2.07
2019-05-06T13:50:33.078Z,1.70
2019-05-06T13:52:15.439Z,1.63
2019-05-06T13:53:50.076Z,2.10
2019-05-06T13:55:24.812Z,2.10
2019-05-06T13:56:59.464Z,1.97
2019-05-06T13:58:34.170Z,2.07
2019-05-06T14:00:09.236Z,2.00
2019-05-06T14:01:52.731Z,2.40
2019-05-06T14:03:26.898Z,2.33
2019-05-06T14:05:02.982Z,2.30
2019-05-06T14:06:37.909Z,2.53
2019-05-06T14:08:13.048Z,2.10
2019-05-06T14:09:47.773Z,2.40
2019-05-06T14:11:23.033Z,2.27
2019-05-06T14:12:57.843Z,2.80
2019-05-06T14:14:32.513Z,2.57
2019-05-06T14:16:07.176Z,2.50
2019-05-06T14:17:42.471Z,2.40
2019-05-06T14:19:17.270Z,2.50
2019-05-06T14:20:52.247Z,2.40
2019-05-06T14:22:26.988Z,3.20
2019-05-06T14:24:02.540Z,3.23
2019-05-06T14:25:52.666Z,2.27
2019-05-06T14:27:26.853Z,3.00
2019-05-06T14:29:07.908Z,2.70
2019-05-06T14:30:58.275Z,2.70
2019-05-06T14:32:33.013Z,2.43
2019-05-06T14:34:07.636Z,2.10
2019-05-06T14:35:43.021Z,2.03
2019-05-06T14:37:17.868Z,1.80
2019-05-06T14:38:53.414Z,1.70
2019-05-06T14:40:28.666Z,1.63
2019-05-06T14:42:04.258Z,1.60
2019-05-06T14:43:39.282Z,1.60
2019-05-06T14:45:14.788Z,1.70
2019-05-06T14:47:14.880Z,1.70
2019-05-06T14:48:49.651Z,2.27
2019-05-06T14:50:31.221Z,1.37
2019-05-06T14:52:02.883Z,1.60
2019-05-06T14:53:37.625Z,1.30
2019-05-06T14:55:23.498Z,1.47
2019-05-06T14:57:02.755Z,1.80
2019-05-06T14:58:37.379Z,1.40
2019-05-06T15:00:14.824Z,1.40
2019-05-06T15:01:49.472Z,1.70
2019-05-06T15:03:24.425Z,1.87
2019-05-06T15:04:59.124Z,1.60
2019-05-06T15:06:34.037Z,1.60
2019-05-06T15:08:08.711Z,1.80
2019-05-06T15:09:55.620Z,1.90
2019-05-06T15:11:19.740Z,1.90
2019-05-06T15:12:55.676Z,1.60
2019-05-06T15:14:32.940Z,1.93
2019-05-06T15:16:06.953Z,1.77
2019-05-06T15:17:44.458Z,1.73
2019-05-06T15:19:19.212Z,1.43
2019-05-06T15:20:53.968Z,1.67
2019-05-06T15:22:28.609Z,1.80
2019-05-06T15:24:03.256Z,1.70
2019-05-06T15:25:37.938Z,1.60
2019-05-06T15:27:12.664Z,1.40
2019-05-06T15:28:47.310Z,1.83
2019-05-06T15:30:29.325Z,1.90
2019-05-06T15:32:09.705Z,1.73
2019-05-06T15:33:46.276Z,2.00
2019-05-06T15:35:33.078Z,1.90
2019-05-06T15:37:17.205Z,1.80
2019-05-06T15:38:52.764Z,1.83
2019-05-06T15:40:32.674Z,1.67
2019-05-06T15:42:04.935Z,1.70
2019-05-06T15:43:39.585Z,2.07
2019-05-06T15:45:14.399Z,2.07
2019-05-06T15:46:49.142Z,5.37
2019-05-06T15:48:23.811Z,4.87
2019-05-06T15:49:58.469Z,2.50
2019-05-06T15:51:36.228Z,2.23
2019-05-06T15:53:12.563Z,2.30
2019-05-06T15:54:48.455Z,2.17
2019-05-06T15:56:23.187Z,2.33
2019-05-06T15:57:57.835Z,2.10
2019-05-06T15:59:33.292Z,2.27
2019-05-06T16:01:08.506Z,2.40
2019-05-06T16:02:43.190Z,2.23
2019-05-06T16:04:17.893Z,2.50
2019-05-06T16:05:55.096Z,2.00
2019-05-06T16:07:31.842Z,2.13
2019-05-06T16:09:06.546Z,2.40
2019-05-06T16:10:52.000Z,2.60
2019-05-06T16:12:19.395Z,2.13
2019-05-06T16:13:54.068Z,2.10
2019-05-06T16:15:28.727Z,2.13
2019-05-06T16:17:03.446Z,2.23
2019-05-06T16:18:38.111Z,2.10
2019-05-06T16:20:14.129Z,2.40
2019-05-06T16:21:48.943Z,2.70
2019-05-06T16:23:33.260Z,2.40
2019-05-06T16:25:10.392Z,2.37
2019-05-06T16:26:45.657Z,2.17
2019-05-06T16:28:22.393Z,2.87
2019-05-06T16:29:58.042Z,2.23
2019-05-06T16:31:33.696Z,2.17
2019-05-06T16:33:08.432Z,2.40
2019-05-06T16:34:43.216Z,2.50
2019-05-06T16:36:17.864Z,2.60
2019-05-06T16:37:52.529Z,1.97
2019-05-06T16:39:27.192Z,2.20
2019-05-06T16:41:10.388Z,3.40
2019-05-06T16:42:38.249Z,9.43
2019-05-06T16:44:13.955Z,3.17
2019-05-06T16:45:48.679Z,2.30
2019-05-06T16:47:39.089Z,2.50
2019-05-06T16:49:14.261Z,2.50
2019-05-06T16:50:49.075Z,2.47
2019-05-06T16:52:23.790Z,2.83
2019-05-06T16:53:58.572Z,2.67
2019-05-06T16:56:12.994Z,2.10
2019-05-06T16:57:52.978Z,2.07
2019-05-06T16:59:27.723Z,2.20
2019-05-06T17:01:03.725Z,2.30
2019-05-06T17:03:06.301Z,2.37
2019-05-06T17:04:46.288Z,2.57
2019-05-06T17:06:26.053Z,2.40
2019-05-06T17:08:02.811Z,2.80
2019-05-06T17:09:37.058Z,2.80
2019-05-06T17:11:24.314Z,2.70
2019-05-06T17:12:48.171Z,2.47
2019-05-06T17:14:22.821Z,2.80
2019-05-06T17:15:57.462Z,2.57
2019-05-06T17:17:40.692Z,2.63
2019-05-06T17:19:08.564Z,2.90
2019-05-06T17:20:43.334Z,3.07
2019-05-06T17:22:18.062Z,2.80
2019-05-06T17:23:52.798Z,3.60
2019-05-06T17:25:27.531Z,3.20
2019-05-06T17:27:02.802Z,3.37
2019-05-06T17:28:57.382Z,3.40
2019-05-06T17:30:43.086Z,3.30
2019-05-06T17:32:25.455Z,4.10
2019-05-06T17:34:02.532Z,3.50
2019-05-06T17:35:36.847Z,3.93
2019-05-06T17:37:29.343Z,3.20
2019-05-06T17:39:07.060Z,3.37
2019-05-06T17:40:42.914Z,3.60
2019-05-06T17:42:17.605Z,3.13
2019-05-06T17:43:52.262Z,3.57
2019-05-06T17:45:58.527Z,4.00
2019-05-06T17:47:36.614Z,3.87
2019-05-06T17:49:38.805Z,3.13
2019-05-06T17:51:33.793Z,3.40
2019-05-06T17:53:08.995Z,3.70
2019-05-06T17:54:43.726Z,3.37
2019-05-06T17:56:18.546Z,3.30
2019-05-06T17:57:53.436Z,3.57
2019-05-06T17:59:28.065Z,3.90
2019-05-06T18:01:03.374Z,4.07
2019-05-06T18:02:38.251Z,4.43
2019-05-06T18:04:13.077Z,3.40
2019-05-06T18:05:47.779Z,4.00
2019-05-06T18:07:22.491Z,3.73
2019-05-06T18:08:57.233Z,4.37
2019-05-06T18:10:33.498Z,3.80
2019-05-06T18:12:08.402Z,4.10
2019-05-06T18:13:43.317Z,3.90
2019-05-06T18:15:18.062Z,4.37
2019-05-06T18:16:53.789Z,4.30
2019-05-06T18:18:29.107Z,4.53
2019-05-06T18:20:04.293Z,4.50
2019-05-06T18:21:38.946Z,4.80
2019-05-06T18:23:13.692Z,5.10
2019-05-06T18:24:48.381Z,4.40
2019-05-06T18:26:24.092Z,4.10
2019-05-06T18:27:58.789Z,4.17
2019-05-06T18:29:33.821Z,4.40
2019-05-06T18:31:08.560Z,4.93
2019-05-06T18:32:43.237Z,4.30
2019-05-06T18:34:46.713Z,5.37
2019-05-06T18:36:22.652Z,4.10
2019-05-06T18:37:57.457Z,4.23
2019-05-06T18:39:33.752Z,4.20
2019-05-06T18:41:08.522Z,2.60
2019-05-06T18:42:43.171Z,2.10
2019-05-06T18:44:17.800Z,2.10
2019-05-06T18:45:55.707Z,1.97
2019-05-06T18:47:33.132Z,1.67
2019-05-06T18:49:08.876Z,1.90
2019-05-06T18:50:43.970Z,2.00
2019-05-06T18:52:18.669Z,1.97
2019-05-06T18:53:53.299Z,1.80
2019-05-06T18:55:28.031Z,1.80
2019-05-06T18:57:15.930Z,1.83
2019-05-06T18:58:52.699Z,1.90
2019-05-06T19:00:27.079Z,1.50
2019-05-06T19:02:02.229Z,2.07
2019-05-06T19:03:45.017Z,1.83
2019-05-06T19:05:27.791Z,1.97
2019-05-06T19:07:10.632Z,2.10
2019-05-06T19:08:50.097Z,2.20
2019-05-06T19:10:27.526Z,2.10
2019-05-06T19:12:03.622Z,1.90
2019-05-06T19:13:38.474Z,2.33
2019-05-06T19:15:13.381Z,2.60
2019-05-06T19:16:52.186Z,2.60
2019-05-06T19:18:24.442Z,2.80
2019-05-06T19:19:59.076Z,2.73
2019-05-06T19:21:33.719Z,2.40
2019-05-06T19:23:08.359Z,2.93
2019-05-06T19:24:44.656Z,2.47
2019-05-06T19:26:19.515Z,2.60
2019-05-06T19:27:54.227Z,2.73
2019-05-06T19:29:28.859Z,3.20
2019-05-06T19:31:03.530Z,2.73
2019-05-06T19:32:38.160Z,2.40
2019-05-06T19:34:13.065Z,2.90
2019-05-06T19:35:47.745Z,3.00
2019-05-06T19:37:23.341Z,3.37
2019-05-06T19:38:58.118Z,2.97
2019-05-06T19:40:32.816Z,3.00
2019-05-06T19:42:07.456Z,3.27
2019-05-06T19:43:42.107Z,3.20
2019-05-06T19:45:16.893Z,3.40
2019-05-06T19:46:53.237Z,3.20
2019-05-06T19:48:28.062Z,3.87
2019-05-06T19:50:02.977Z,4.00
2019-05-06T19:51:37.601Z,3.93
2019-05-06T19:53:12.245Z,3.80
2019-05-06T19:54:46.973Z,3.97
2019-05-06T19:56:23.211Z,3.93
2019-05-06T19:57:59.014Z,4.27
2019-05-06T19:59:33.739Z,3.87
2019-05-06T20:01:08.383Z,4.00
2019-05-06T20:02:43.079Z,4.60
2019-05-06T20:04:17.843Z,4.30
2019-05-06T20:06:22.604Z,4.10
2019-05-06T20:08:05.811Z,4.23
2019-05-06T20:10:14.552Z,4.27
2019-05-06T20:11:51.938Z,4.03
2019-05-06T20:13:26.602Z,4.77
2019-05-06T20:15:18.877Z,4.93
2019-05-06T20:16:53.529Z,4.53
2019-05-06T20:18:28.156Z,4.90
2019-05-06T20:20:03.049Z,4.77
2019-05-06T20:21:37.790Z,4.50
2019-05-06T20:23:12.750Z,4.43
2019-05-06T20:24:47.549Z,5.20
2019-05-06T20:26:22.206Z,4.47
2019-05-06T20:27:56.844Z,5.23
2019-05-06T20:29:33.016Z,4.90
2019-05-06T20:31:07.944Z,4.67
2019-05-06T20:32:43.172Z,4.87
2019-05-06T20:34:18.342Z,4.97
2019-05-06T20:35:53.063Z,4.43
2019-05-06T20:37:27.784Z,4.63
2019-05-06T20:39:02.682Z,4.93
2019-05-06T20:40:39.548Z,4.93
2019-05-06T20:42:14.187Z,4.63
2019-05-06T20:43:48.907Z,4.93
2019-05-06T20:45:23.554Z,4.90
2019-05-06T20:46:58.279Z,4.57
2019-05-06T20:48:32.957Z,5.27
2019-05-06T20:50:08.715Z,4.97
2019-05-06T20:51:43.673Z,4.90
2019-05-06T20:53:18.321Z,5.17
2019-05-06T20:54:52.971Z,5.20
2019-05-06T20:56:27.600Z,4.90
2019-05-06T20:58:02.817Z,4.80
2019-05-06T20:59:37.597Z,5.37
2019-05-06T21:01:12.410Z,5.27
2019-05-06T21:02:47.115Z,5.10
2019-05-06T21:04:22.822Z,5.43
2019-05-06T21:05:57.698Z,4.97
2019-05-06T21:07:32.475Z,5.60
2019-05-06T21:09:08.620Z,5.03
2019-05-06T21:10:44.167Z,5.93
2019-05-06T21:12:18.795Z,5.83
2019-05-06T21:13:53.445Z,5.80
2019-05-06T21:15:28.105Z,5.57
2019-05-06T21:17:03.084Z,5.97
2019-05-06T21:18:37.696Z,6.13
2019-05-06T21:20:14.204Z,5.47
2019-05-06T21:21:49.046Z,6.30
2019-05-06T21:23:23.961Z,5.30
2019-05-06T21:24:58.586Z,5.33
2019-05-06T21:26:33.226Z,5.60
2019-05-06T21:28:07.880Z,5.50
2019-05-06T21:29:42.501Z,5.53
2019-05-06T21:31:18.166Z,5.37
2019-05-06T21:32:52.822Z,5.13
2019-05-06T21:34:27.470Z,5.00
2019-05-06T21:36:03.008Z,5.30
2019-05-06T21:37:37.842Z,5.47
2019-05-06T21:39:13.111Z,5.33
2019-05-06T21:40:47.937Z,5.47
2019-05-06T21:42:24.098Z,5.60